sensor_id;sensor_type;location;lat;lon;timestamp;P1;durP1;ratioP1;P2;durP2;ratioP2
7199;SDS011;3641;49.082;8.200;2023-04-12T00:00:35;6.00;;;2.28;;
7199;SDS011;3641;49.082;8.200;2023-04-12T00:03:03;10.00;;;2.47;;
7199;SDS011;3641;49.082;8.200;2023-04-12T00:05:31;10.45;;;3.90;;
7199;SDS011;3641;49.082;8.200;2023-04-12T00:07:58;6.22;;;2.50;;
7199;SDS011;3641;49.082;8.200;2023-04-12T00:10:27;8.88;;;3.05;;
7199;SDS011;3641;49.082;8.200;2023-04-12T00:12:54;7.32;;;2.63;;
7199;SDS011;3641;49.082;8.200;2023-04-12T00:15:20;5.78;;;2.50;;
7199;SDS011;3641;49.082;8.200;2023-04-12T00:17:46;8.82;;;2.92;;
7199;SDS011;3641;49.082;8.200;2023-04-12T00:20:13;8.40;;;2.60;;
7199;SDS011;3641;49.082;8.200;2023-04-12T00:22:40;8.50;;;2.63;;
7199;SDS011;3641;49.082;8.200;2023-04-12T00:25:07;6.68;;;2.60;;
7199;SDS011;3641;49.082;8.200;2023-04-12T00:27:35;11.32;;;3.30;;
7199;SDS011;3641;49.082;8.200;2023-04-12T00:30:01;7.75;;;3.00;;
7199;SDS011;3641;49.082;8.200;2023-04-12T00:32:28;7.38;;;2.78;;
7199;SDS011;3641;49.082;8.200;2023-04-12T00:34:55;6.43;;;2.80;;
7199;SDS011;3641;49.082;8.200;2023-04-12T00:37:21;6.38;;;2.80;;
7199;SDS011;3641;49.082;8.200;2023-04-12T00:39:47;9.30;;;2.85;;
7199;SDS011;3641;49.082;8.200;2023-04-12T00:42:14;8.43;;;3.53;;
7199;SDS011;3641;49.082;8.200;2023-04-12T00:44:42;11.77;;;4.20;;
7199;SDS011;3641;49.082;8.200;2023-04-12T00:47:08;7.47;;;3.00;;
7199;SDS011;3641;49.082;8.200;2023-04-12T00:49:35;8.75;;;3.42;;
7199;SDS011;3641;49.082;8.200;2023-04-12T00:52:02;14.77;;;3.47;;
7199;SDS011;3641;49.082;8.200;2023-04-12T00:54:30;6.90;;;2.65;;
7199;SDS011;3641;49.082;8.200;2023-04-12T00:56:58;7.05;;;2.83;;
7199;SDS011;3641;49.082;8.200;2023-04-12T00:59:25;8.70;;;3.33;;
7199;SDS011;3641;49.082;8.200;2023-04-12T01:01:53;7.03;;;2.35;;
7199;SDS011;3641;49.082;8.200;2023-04-12T01:04:21;10.88;;;3.13;;
7199;SDS011;3641;49.082;8.200;2023-04-12T01:06:53;8.57;;;2.55;;
7199;SDS011;3641;49.082;8.200;2023-04-12T01:09:30;6.57;;;2.50;;
7199;SDS011;3641;49.082;8.200;2023-04-12T01:12:03;7.78;;;2.90;;
7199;SDS011;3641;49.082;8.200;2023-04-12T01:14:39;9.55;;;2.53;;
7199;SDS011;3641;49.082;8.200;2023-04-12T01:17:15;6.25;;;2.63;;
7199;SDS011;3641;49.082;8.200;2023-04-12T01:19:47;7.35;;;2.60;;
7199;SDS011;3641;49.082;8.200;2023-04-12T01:25:23;10.23;;;2.92;;
7199;SDS011;3641;49.082;8.200;2023-04-12T01:28:04;8.43;;;2.90;;
7199;SDS011;3641;49.082;8.200;2023-04-12T01:30:33;7.53;;;2.63;;
7199;SDS011;3641;49.082;8.200;2023-04-12T01:33:02;5.50;;;2.55;;
7199;SDS011;3641;49.082;8.200;2023-04-12T01:35:31;9.55;;;3.00;;
7199;SDS011;3641;49.082;8.200;2023-04-12T01:37:58;8.93;;;2.58;;
7199;SDS011;3641;49.082;8.200;2023-04-12T01:40:26;8.13;;;2.88;;
7199;SDS011;3641;49.082;8.200;2023-04-12T01:43:02;7.50;;;2.75;;
7199;SDS011;3641;49.082;8.200;2023-04-12T01:45:31;5.70;;;2.85;;
7199;SDS011;3641;49.082;8.200;2023-04-12T01:47:57;6.30;;;2.85;;
7199;SDS011;3641;49.082;8.200;2023-04-12T01:50:26;8.52;;;2.83;;
7199;SDS011;3641;49.082;8.200;2023-04-12T01:53:02;6.97;;;2.88;;
7199;SDS011;3641;49.082;8.200;2023-04-12T01:55:33;7.25;;;3.05;;
7199;SDS011;3641;49.082;8.200;2023-04-12T01:58:02;9.27;;;3.17;;
7199;SDS011;3641;49.082;8.200;2023-04-12T02:00:32;8.95;;;3.00;;
7199;SDS011;3641;49.082;8.200;2023-04-12T02:03:01;10.43;;;2.95;;
7199;SDS011;3641;49.082;8.200;2023-04-12T02:05:30;12.43;;;3.08;;
7199;SDS011;3641;49.082;8.200;2023-04-12T02:07:57;9.50;;;3.30;;
7199;SDS011;3641;49.082;8.200;2023-04-12T02:10:27;8.45;;;2.97;;
7199;SDS011;3641;49.082;8.200;2023-04-12T02:12:54;9.77;;;3.00;;
7199;SDS011;3641;49.082;8.200;2023-04-12T02:15:22;9.85;;;2.92;;
7199;SDS011;3641;49.082;8.200;2023-04-12T02:17:50;11.23;;;3.40;;
7199;SDS011;3641;49.082;8.200;2023-04-12T02:20:17;11.50;;;2.80;;
7199;SDS011;3641;49.082;8.200;2023-04-12T02:22:44;8.77;;;2.70;;
7199;SDS011;3641;49.082;8.200;2023-04-12T02:25:11;7.75;;;2.40;;
7199;SDS011;3641;49.082;8.200;2023-04-12T02:27:37;7.05;;;2.70;;
7199;SDS011;3641;49.082;8.200;2023-04-12T02:30:04;9.52;;;3.15;;
7199;SDS011;3641;49.082;8.200;2023-04-12T02:32:33;9.70;;;3.05;;
7199;SDS011;3641;49.082;8.200;2023-04-12T02:35:08;8.43;;;2.90;;
7199;SDS011;3641;49.082;8.200;2023-04-12T02:37:35;8.07;;;2.67;;
7199;SDS011;3641;49.082;8.200;2023-04-12T02:40:02;10.15;;;3.55;;
7199;SDS011;3641;49.082;8.200;2023-04-12T02:42:30;7.35;;;2.83;;
7199;SDS011;3641;49.082;8.200;2023-04-12T02:44:56;6.53;;;2.78;;
7199;SDS011;3641;49.082;8.200;2023-04-12T02:47:23;7.70;;;2.67;;
7199;SDS011;3641;49.082;8.200;2023-04-12T02:49:53;7.25;;;2.75;;
7199;SDS011;3641;49.082;8.200;2023-04-12T02:52:20;8.50;;;3.33;;
7199;SDS011;3641;49.082;8.200;2023-04-12T02:54:47;9.20;;;3.17;;
7199;SDS011;3641;49.082;8.200;2023-04-12T02:57:14;9.27;;;3.08;;
7199;SDS011;3641;49.082;8.200;2023-04-12T02:59:41;8.25;;;2.70;;
7199;SDS011;3641;49.082;8.200;2023-04-12T03:02:08;8.98;;;2.75;;
7199;SDS011;3641;49.082;8.200;2023-04-12T03:04:34;9.75;;;2.67;;
7199;SDS011;3641;49.082;8.200;2023-04-12T03:07:05;7.30;;;2.67;;
7199;SDS011;3641;49.082;8.200;2023-04-12T03:09:31;7.28;;;2.63;;
7199;SDS011;3641;49.082;8.200;2023-04-12T03:11:58;9.25;;;2.50;;
7199;SDS011;3641;49.082;8.200;2023-04-12T03:14:25;7.00;;;2.67;;
7199;SDS011;3641;49.082;8.200;2023-04-12T03:16:51;7.95;;;2.50;;
7199;SDS011;3641;49.082;8.200;2023-04-12T03:19:18;8.02;;;2.90;;
7199;SDS011;3641;49.082;8.200;2023-04-12T03:21:44;7.78;;;3.20;;
7199;SDS011;3641;49.082;8.200;2023-04-12T03:24:12;6.78;;;2.67;;
7199;SDS011;3641;49.082;8.200;2023-04-12T03:26:38;7.18;;;2.70;;
7199;SDS011;3641;49.082;8.200;2023-04-12T03:29:05;10.40;;;2.78;;
7199;SDS011;3641;49.082;8.200;2023-04-12T03:31:33;8.48;;;2.65;;
7199;SDS011;3641;49.082;8.200;2023-04-12T03:33:59;7.18;;;2.60;;
7199;SDS011;3641;49.082;8.200;2023-04-12T03:36:26;7.03;;;2.78;;
7199;SDS011;3641;49.082;8.200;2023-04-12T03:38:53;5.68;;;1.95;;
7199;SDS011;3641;49.082;8.200;2023-04-12T03:41:21;6.63;;;2.28;;
7199;SDS011;3641;49.082;8.200;2023-04-12T03:43:48;6.90;;;3.03;;
7199;SDS011;3641;49.082;8.200;2023-04-12T03:46:14;5.07;;;2.10;;
7199;SDS011;3641;49.082;8.200;2023-04-12T03:48:41;8.30;;;2.60;;
7199;SDS011;3641;49.082;8.200;2023-04-12T03:51:08;6.85;;;2.17;;
7199;SDS011;3641;49.082;8.200;2023-04-12T03:53:36;7.22;;;2.22;;
7199;SDS011;3641;49.082;8.200;2023-04-12T03:56:02;6.72;;;2.65;;
7199;SDS011;3641;49.082;8.200;2023-04-12T03:58:30;4.55;;;1.90;;
7199;SDS011;3641;49.082;8.200;2023-04-12T04:00:57;3.63;;;1.75;;
7199;SDS011;3641;49.082;8.200;2023-04-12T04:03:25;7.40;;;2.20;;
7199;SDS011;3641;49.082;8.200;2023-04-12T04:05:53;6.85;;;2.28;;
7199;SDS011;3641;49.082;8.200;2023-04-12T04:08:20;5.15;;;1.90;;
7199;SDS011;3641;49.082;8.200;2023-04-12T04:10:47;5.38;;;2.40;;
7199;SDS011;3641;49.082;8.200;2023-04-12T04:13:13;7.32;;;2.40;;
7199;SDS011;3641;49.082;8.200;2023-04-12T04:15:41;8.52;;;2.13;;
7199;SDS011;3641;49.082;8.200;2023-04-12T04:18:07;8.70;;;2.03;;
7199;SDS011;3641;49.082;8.200;2023-04-12T04:20:34;7.35;;;2.13;;
7199;SDS011;3641;49.082;8.200;2023-04-12T04:23:00;5.20;;;1.88;;
7199;SDS011;3641;49.082;8.200;2023-04-12T04:25:27;6.63;;;2.10;;
7199;SDS011;3641;49.082;8.200;2023-04-12T04:27:54;10.73;;;2.15;;
7199;SDS011;3641;49.082;8.200;2023-04-12T04:30:23;8.88;;;2.03;;
7199;SDS011;3641;49.082;8.200;2023-04-12T04:32:51;6.28;;;2.17;;
7199;SDS011;3641;49.082;8.200;2023-04-12T04:35:18;5.53;;;2.50;;
7199;SDS011;3641;49.082;8.200;2023-04-12T04:37:45;6.32;;;2.03;;
7199;SDS011;3641;49.082;8.200;2023-04-12T04:40:12;6.60;;;2.40;;
7199;SDS011;3641;49.082;8.200;2023-04-12T04:42:39;5.32;;;2.17;;
7199;SDS011;3641;49.082;8.200;2023-04-12T04:45:07;6.75;;;1.92;;
7199;SDS011;3641;49.082;8.200;2023-04-12T04:47:38;4.57;;;2.17;;
7199;SDS011;3641;49.082;8.200;2023-04-12T04:50:06;7.25;;;2.05;;
7199;SDS011;3641;49.082;8.200;2023-04-12T04:52:33;4.25;;;1.75;;
7199;SDS011;3641;49.082;8.200;2023-04-12T04:55:01;7.28;;;2.00;;
7199;SDS011;3641;49.082;8.200;2023-04-12T04:57:28;3.85;;;1.80;;
7199;SDS011;3641;49.082;8.200;2023-04-12T04:59:55;6.45;;;2.00;;
7199;SDS011;3641;49.082;8.200;2023-04-12T05:02:21;3.78;;;1.65;;
7199;SDS011;3641;49.082;8.200;2023-04-12T05:04:48;5.13;;;1.83;;
7199;SDS011;3641;49.082;8.200;2023-04-12T05:07:16;4.88;;;2.08;;
7199;SDS011;3641;49.082;8.200;2023-04-12T05:09:43;3.80;;;2.00;;
7199;SDS011;3641;49.082;8.200;2023-04-12T05:12:10;5.03;;;2.05;;
7199;SDS011;3641;49.082;8.200;2023-04-12T05:14:36;5.75;;;1.95;;
7199;SDS011;3641;49.082;8.200;2023-04-12T05:17:04;7.22;;;2.30;;
7199;SDS011;3641;49.082;8.200;2023-04-12T05:19:30;7.90;;;2.38;;
7199;SDS011;3641;49.082;8.200;2023-04-12T05:21:56;9.35;;;2.67;;
7199;SDS011;3641;49.082;8.200;2023-04-12T05:24:24;9.35;;;2.40;;
7199;SDS011;3641;49.082;8.200;2023-04-12T05:26:51;6.63;;;2.72;;
7199;SDS011;3641;49.082;8.200;2023-04-12T05:29:17;10.05;;;3.08;;
7199;SDS011;3641;49.082;8.200;2023-04-12T05:31:44;7.93;;;2.83;;
7199;SDS011;3641;49.082;8.200;2023-04-12T05:34:10;8.57;;;2.70;;
7199;SDS011;3641;49.082;8.200;2023-04-12T05:36:36;8.95;;;2.97;;
7199;SDS011;3641;49.082;8.200;2023-04-12T05:39:03;8.20;;;3.00;;
7199;SDS011;3641;49.082;8.200;2023-04-12T05:41:31;6.30;;;2.92;;
7199;SDS011;3641;49.082;8.200;2023-04-12T05:43:57;7.22;;;3.30;;
7199;SDS011;3641;49.082;8.200;2023-04-12T05:46:24;6.70;;;3.13;;
7199;SDS011;3641;49.082;8.200;2023-04-12T05:48:50;9.10;;;3.55;;
7199;SDS011;3641;49.082;8.200;2023-04-12T05:51:16;6.57;;;3.05;;
7199;SDS011;3641;49.082;8.200;2023-04-12T05:53:43;8.32;;;2.97;;
7199;SDS011;3641;49.082;8.200;2023-04-12T05:56:09;10.85;;;3.03;;
7199;SDS011;3641;49.082;8.200;2023-04-12T05:58:37;7.75;;;2.92;;
7199;SDS011;3641;49.082;8.200;2023-04-12T06:01:04;6.43;;;2.90;;
7199;SDS011;3641;49.082;8.200;2023-04-12T06:03:30;8.65;;;3.20;;
7199;SDS011;3641;49.082;8.200;2023-04-12T06:05:57;6.05;;;2.70;;
7199;SDS011;3641;49.082;8.200;2023-04-12T06:08:23;10.50;;;4.20;;
7199;SDS011;3641;49.082;8.200;2023-04-12T06:10:53;6.25;;;2.83;;
7199;SDS011;3641;49.082;8.200;2023-04-12T06:13:19;8.80;;;4.22;;
7199;SDS011;3641;49.082;8.200;2023-04-12T06:15:47;6.65;;;2.83;;
7199;SDS011;3641;49.082;8.200;2023-04-12T06:18:14;8.07;;;2.83;;
7199;SDS011;3641;49.082;8.200;2023-04-12T06:20:41;8.95;;;2.97;;
7199;SDS011;3641;49.082;8.200;2023-04-12T06:23:07;8.10;;;2.78;;
7199;SDS011;3641;49.082;8.200;2023-04-12T06:25:33;11.05;;;2.97;;
7199;SDS011;3641;49.082;8.200;2023-04-12T06:28:01;7.80;;;2.78;;
7199;SDS011;3641;49.082;8.200;2023-04-12T06:30:27;9.48;;;3.13;;
7199;SDS011;3641;49.082;8.200;2023-04-12T06:32:55;6.20;;;3.08;;
7199;SDS011;3641;49.082;8.200;2023-04-12T06:35:21;8.80;;;3.08;;
7199;SDS011;3641;49.082;8.200;2023-04-12T06:37:48;8.23;;;2.90;;
7199;SDS011;3641;49.082;8.200;2023-04-12T06:40:15;9.02;;;2.90;;
7199;SDS011;3641;49.082;8.200;2023-04-12T06:42:41;5.65;;;2.67;;
7199;SDS011;3641;49.082;8.200;2023-04-12T06:45:08;5.82;;;2.75;;
7199;SDS011;3641;49.082;8.200;2023-04-12T06:47:35;7.88;;;2.60;;
7199;SDS011;3641;49.082;8.200;2023-04-12T06:50:03;7.80;;;2.65;;
7199;SDS011;3641;49.082;8.200;2023-04-12T06:52:31;6.68;;;2.25;;
7199;SDS011;3641;49.082;8.200;2023-04-12T06:54:57;8.48;;;3.03;;
7199;SDS011;3641;49.082;8.200;2023-04-12T06:57:24;6.03;;;2.72;;
7199;SDS011;3641;49.082;8.200;2023-04-12T06:59:51;7.72;;;3.00;;
7199;SDS011;3641;49.082;8.200;2023-04-12T07:02:17;6.63;;;2.97;;
7199;SDS011;3641;49.082;8.200;2023-04-12T07:04:43;5.93;;;3.10;;
7199;SDS011;3641;49.082;8.200;2023-04-12T07:07:11;8.85;;;2.85;;
7199;SDS011;3641;49.082;8.200;2023-04-12T07:09:38;6.50;;;2.90;;
7199;SDS011;3641;49.082;8.200;2023-04-12T07:12:04;6.72;;;2.92;;
7199;SDS011;3641;49.082;8.200;2023-04-12T07:14:31;6.35;;;3.00;;
7199;SDS011;3641;49.082;8.200;2023-04-12T07:16:58;8.73;;;2.90;;
7199;SDS011;3641;49.082;8.200;2023-04-12T07:19:24;5.97;;;2.78;;
7199;SDS011;3641;49.082;8.200;2023-04-12T07:21:51;5.63;;;2.85;;
7199;SDS011;3641;49.082;8.200;2023-04-12T07:24:19;9.57;;;3.78;;
7199;SDS011;3641;49.082;8.200;2023-04-12T07:26:45;9.32;;;3.42;;
7199;SDS011;3641;49.082;8.200;2023-04-12T07:29:11;7.15;;;3.40;;
7199;SDS011;3641;49.082;8.200;2023-04-12T07:31:38;6.05;;;3.20;;
7199;SDS011;3641;49.082;8.200;2023-04-12T07:34:04;9.18;;;3.50;;
7199;SDS011;3641;49.082;8.200;2023-04-12T07:36:31;7.88;;;3.13;;
7199;SDS011;3641;49.082;8.200;2023-04-12T07:38:57;8.60;;;3.33;;
7199;SDS011;3641;49.082;8.200;2023-04-12T07:41:25;7.38;;;3.30;;
7199;SDS011;3641;49.082;8.200;2023-04-12T07:43:52;7.72;;;4.18;;
7199;SDS011;3641;49.082;8.200;2023-04-12T07:46:20;7.55;;;3.67;;
7199;SDS011;3641;49.082;8.200;2023-04-12T07:48:46;7.82;;;3.65;;
7199;SDS011;3641;49.082;8.200;2023-04-12T07:51:13;7.30;;;3.63;;
7199;SDS011;3641;49.082;8.200;2023-04-12T07:53:39;12.55;;;4.10;;
7199;SDS011;3641;49.082;8.200;2023-04-12T07:56:12;7.13;;;3.47;;
7199;SDS011;3641;49.082;8.200;2023-04-12T07:58:39;9.05;;;3.88;;
7199;SDS011;3641;49.082;8.200;2023-04-12T08:01:06;13.90;;;3.70;;
7199;SDS011;3641;49.082;8.200;2023-04-12T08:03:32;8.40;;;3.40;;
7199;SDS011;3641;49.082;8.200;2023-04-12T08:05:59;9.23;;;3.65;;
7199;SDS011;3641;49.082;8.200;2023-04-12T08:08:29;7.72;;;3.75;;
7199;SDS011;3641;49.082;8.200;2023-04-12T08:10:55;5.93;;;3.30;;
7199;SDS011;3641;49.082;8.200;2023-04-12T08:13:22;7.43;;;2.90;;
7199;SDS011;3641;49.082;8.200;2023-04-12T08:15:49;9.13;;;3.30;;
7199;SDS011;3641;49.082;8.200;2023-04-12T08:18:16;7.78;;;3.13;;
7199;SDS011;3641;49.082;8.200;2023-04-12T08:20:42;8.15;;;3.80;;
7199;SDS011;3641;49.082;8.200;2023-04-12T08:23:09;11.05;;;3.15;;
7199;SDS011;3641;49.082;8.200;2023-04-12T08:25:36;8.73;;;3.40;;
7199;SDS011;3641;49.082;8.200;2023-04-12T08:28:03;7.00;;;2.90;;
7199;SDS011;3641;49.082;8.200;2023-04-12T08:30:32;8.80;;;3.30;;
7199;SDS011;3641;49.082;8.200;2023-04-12T08:33:00;13.05;;;3.70;;
7199;SDS011;3641;49.082;8.200;2023-04-12T08:35:26;7.72;;;3.40;;
7199;SDS011;3641;49.082;8.200;2023-04-12T08:37:53;6.60;;;3.13;;
7199;SDS011;3641;49.082;8.200;2023-04-12T08:40:19;8.45;;;3.65;;
7199;SDS011;3641;49.082;8.200;2023-04-12T08:42:46;7.10;;;3.10;;
7199;SDS011;3641;49.082;8.200;2023-04-12T08:45:13;7.60;;;2.92;;
7199;SDS011;3641;49.082;8.200;2023-04-12T08:47:40;7.45;;;3.00;;
7199;SDS011;3641;49.082;8.200;2023-04-12T08:50:09;10.95;;;3.30;;
7199;SDS011;3641;49.082;8.200;2023-04-12T08:52:39;8.60;;;3.28;;
7199;SDS011;3641;49.082;8.200;2023-04-12T08:55:08;6.53;;;3.47;;
7199;SDS011;3641;49.082;8.200;2023-04-12T08:57:38;7.55;;;3.10;;
7199;SDS011;3641;49.082;8.200;2023-04-12T09:00:06;7.45;;;3.13;;
7199;SDS011;3641;49.082;8.200;2023-04-12T09:02:34;11.18;;;3.78;;
7199;SDS011;3641;49.082;8.200;2023-04-12T09:05:04;10.90;;;3.53;;
7199;SDS011;3641;49.082;8.200;2023-04-12T09:07:33;10.32;;;3.00;;
7199;SDS011;3641;49.082;8.200;2023-04-12T09:10:01;7.85;;;3.10;;
7199;SDS011;3641;49.082;8.200;2023-04-12T09:12:28;9.60;;;3.20;;
7199;SDS011;3641;49.082;8.200;2023-04-12T09:15:05;6.50;;;2.80;;
7199;SDS011;3641;49.082;8.200;2023-04-12T09:17:33;7.60;;;3.25;;
7199;SDS011;3641;49.082;8.200;2023-04-12T09:20:02;7.97;;;3.22;;
7199;SDS011;3641;49.082;8.200;2023-04-12T09:22:51;11.00;;;3.33;;
7199;SDS011;3641;49.082;8.200;2023-04-12T09:25:19;5.43;;;3.15;;
7199;SDS011;3641;49.082;8.200;2023-04-12T09:28:01;7.60;;;3.03;;
7199;SDS011;3641;49.082;8.200;2023-04-12T09:30:29;7.95;;;3.03;;
7199;SDS011;3641;49.082;8.200;2023-04-12T09:33:09;10.75;;;3.60;;
7199;SDS011;3641;49.082;8.200;2023-04-12T09:35:36;10.30;;;3.47;;
7199;SDS011;3641;49.082;8.200;2023-04-12T09:38:07;9.10;;;3.63;;
7199;SDS011;3641;49.082;8.200;2023-04-12T09:40:33;7.28;;;3.42;;
7199;SDS011;3641;49.082;8.200;2023-04-12T09:43:01;9.50;;;3.97;;
7199;SDS011;3641;49.082;8.200;2023-04-12T09:45:28;6.68;;;3.53;;
7199;SDS011;3641;49.082;8.200;2023-04-12T09:47:58;10.60;;;3.15;;
7199;SDS011;3641;49.082;8.200;2023-04-12T09:50:26;8.23;;;3.28;;
7199;SDS011;3641;49.082;8.200;2023-04-12T09:52:54;13.80;;;3.58;;
7199;SDS011;3641;49.082;8.200;2023-04-12T09:55:24;8.43;;;3.45;;
7199;SDS011;3641;49.082;8.200;2023-04-12T09:57:52;9.23;;;3.60;;
7199;SDS011;3641;49.082;8.200;2023-04-12T10:00:20;11.05;;;2.97;;
7199;SDS011;3641;49.082;8.200;2023-04-12T10:02:49;6.43;;;2.90;;
7199;SDS011;3641;49.082;8.200;2023-04-12T10:05:17;8.32;;;3.33;;
7199;SDS011;3641;49.082;8.200;2023-04-12T10:07:45;6.43;;;3.15;;
7199;SDS011;3641;49.082;8.200;2023-04-12T10:10:12;8.68;;;3.65;;
7199;SDS011;3641;49.082;8.200;2023-04-12T10:12:42;6.65;;;3.47;;
7199;SDS011;3641;49.082;8.200;2023-04-12T10:15:11;8.63;;;3.33;;
7199;SDS011;3641;49.082;8.200;2023-04-12T10:17:41;9.82;;;3.15;;
7199;SDS011;3641;49.082;8.200;2023-04-12T10:20:09;9.65;;;3.08;;
7199;SDS011;3641;49.082;8.200;2023-04-12T10:22:37;9.82;;;3.45;;
7199;SDS011;3641;49.082;8.200;2023-04-12T10:25:04;9.40;;;3.35;;
7199;SDS011;3641;49.082;8.200;2023-04-12T10:27:35;8.40;;;3.60;;
7199;SDS011;3641;49.082;8.200;2023-04-12T10:32:46;9.90;;;3.40;;
7199;SDS011;3641;49.082;8.200;2023-04-12T10:35:13;10.88;;;3.50;;
7199;SDS011;3641;49.082;8.200;2023-04-12T10:37:59;8.10;;;3.90;;
7199;SDS011;3641;49.082;8.200;2023-04-12T10:40:27;12.23;;;3.28;;
7199;SDS011;3641;49.082;8.200;2023-04-12T10:45:53;7.50;;;3.17;;
7199;SDS011;3641;49.082;8.200;2023-04-12T10:48:32;8.93;;;3.92;;
7199;SDS011;3641;49.082;8.200;2023-04-12T10:51:15;8.52;;;3.40;;
7199;SDS011;3641;49.082;8.200;2023-04-12T10:53:47;8.90;;;3.20;;
7199;SDS011;3641;49.082;8.200;2023-04-12T10:59:03;8.38;;;2.50;;
7199;SDS011;3641;49.082;8.200;2023-04-12T11:01:32;8.30;;;2.42;;
7199;SDS011;3641;49.082;8.200;2023-04-12T11:06:56;8.40;;;2.63;;
7199;SDS011;3641;49.082;8.200;2023-04-12T11:09:27;5.93;;;2.03;;
7199;SDS011;3641;49.082;8.200;2023-04-12T11:11:55;5.70;;;2.40;;
7199;SDS011;3641;49.082;8.200;2023-04-12T11:14:24;9.05;;;2.80;;
7199;SDS011;3641;49.082;8.200;2023-04-12T11:19:51;8.48;;;2.60;;
7199;SDS011;3641;49.082;8.200;2023-04-12T11:22:26;6.57;;;2.70;;
7199;SDS011;3641;49.082;8.200;2023-04-12T11:24:55;6.57;;;2.58;;
7199;SDS011;3641;49.082;8.200;2023-04-12T11:27:24;7.60;;;2.55;;
7199;SDS011;3641;49.082;8.200;2023-04-12T11:29:51;6.22;;;3.25;;
7199;SDS011;3641;49.082;8.200;2023-04-12T11:32:20;8.70;;;2.85;;
7199;SDS011;3641;49.082;8.200;2023-04-12T11:34:49;5.50;;;2.38;;
7199;SDS011;3641;49.082;8.200;2023-04-12T11:37:17;5.90;;;2.38;;
7199;SDS011;3641;49.082;8.200;2023-04-12T11:39:44;5.85;;;1.85;;
7199;SDS011;3641;49.082;8.200;2023-04-12T11:42:12;6.65;;;2.47;;
7199;SDS011;3641;49.082;8.200;2023-04-12T11:44:40;5.72;;;2.53;;
7199;SDS011;3641;49.082;8.200;2023-04-12T11:47:11;7.43;;;2.28;;
7199;SDS011;3641;49.082;8.200;2023-04-12T11:49:42;6.88;;;2.20;;
7199;SDS011;3641;49.082;8.200;2023-04-12T11:52:10;6.53;;;2.28;;
7199;SDS011;3641;49.082;8.200;2023-04-12T11:54:40;8.60;;;2.30;;
7199;SDS011;3641;49.082;8.200;2023-04-12T11:57:09;4.93;;;2.30;;
7199;SDS011;3641;49.082;8.200;2023-04-12T11:59:37;4.30;;;1.70;;
7199;SDS011;3641;49.082;8.200;2023-04-12T12:02:04;5.43;;;1.85;;
7199;SDS011;3641;49.082;8.200;2023-04-12T12:04:31;7.03;;;2.10;;
7199;SDS011;3641;49.082;8.200;2023-04-12T12:06:57;7.07;;;2.00;;
7199;SDS011;3641;49.082;8.200;2023-04-12T12:09:26;5.05;;;1.88;;
7199;SDS011;3641;49.082;8.200;2023-04-12T12:11:53;6.13;;;2.33;;
7199;SDS011;3641;49.082;8.200;2023-04-12T12:14:20;5.15;;;1.95;;
7199;SDS011;3641;49.082;8.200;2023-04-12T12:16:51;5.55;;;1.88;;
7199;SDS011;3641;49.082;8.200;2023-04-12T12:19:25;6.15;;;1.83;;
7199;SDS011;3641;49.082;8.200;2023-04-12T12:21:52;5.93;;;1.98;;
7199;SDS011;3641;49.082;8.200;2023-04-12T12:24:21;3.42;;;1.75;;
7199;SDS011;3641;49.082;8.200;2023-04-12T12:26:49;4.63;;;1.80;;
7199;SDS011;3641;49.082;8.200;2023-04-12T12:29:16;4.93;;;1.73;;
7199;SDS011;3641;49.082;8.200;2023-04-12T12:31:44;3.75;;;1.67;;
7199;SDS011;3641;49.082;8.200;2023-04-12T12:34:12;5.38;;;1.70;;
7199;SDS011;3641;49.082;8.200;2023-04-12T12:36:38;6.93;;;1.70;;
7199;SDS011;3641;49.082;8.200;2023-04-12T12:39:05;6.13;;;1.83;;
7199;SDS011;3641;49.082;8.200;2023-04-12T12:41:34;5.63;;;1.73;;
7199;SDS011;3641;49.082;8.200;2023-04-12T12:44:02;4.25;;;1.90;;
7199;SDS011;3641;49.082;8.200;2023-04-12T12:46:29;6.95;;;1.70;;
7199;SDS011;3641;49.082;8.200;2023-04-12T12:48:55;5.07;;;1.95;;
7199;SDS011;3641;49.082;8.200;2023-04-12T12:51:22;5.32;;;1.73;;
7199;SDS011;3641;49.082;8.200;2023-04-12T12:53:48;4.35;;;2.33;;
7199;SDS011;3641;49.082;8.200;2023-04-12T12:56:15;3.28;;;1.40;;
7199;SDS011;3641;49.082;8.200;2023-04-12T12:58:41;3.78;;;1.52;;
7199;SDS011;3641;49.082;8.200;2023-04-12T13:01:09;4.40;;;1.90;;
7199;SDS011;3641;49.082;8.200;2023-04-12T13:03:36;7.00;;;1.80;;
7199;SDS011;3641;49.082;8.200;2023-04-12T13:06:02;5.40;;;2.13;;
7199;SDS011;3641;49.082;8.200;2023-04-12T13:08:29;6.65;;;1.80;;
7199;SDS011;3641;49.082;8.200;2023-04-12T13:10:59;4.72;;;1.70;;
7199;SDS011;3641;49.082;8.200;2023-04-12T13:13:25;4.03;;;1.95;;
7199;SDS011;3641;49.082;8.200;2023-04-12T13:15:52;4.20;;;1.77;;
7199;SDS011;3641;49.082;8.200;2023-04-12T13:18:19;6.03;;;2.00;;
7199;SDS011;3641;49.082;8.200;2023-04-12T13:20:46;6.78;;;2.28;;
7199;SDS011;3641;49.082;8.200;2023-04-12T13:23:12;7.40;;;2.00;;
7199;SDS011;3641;49.082;8.200;2023-04-12T13:25:39;7.07;;;2.05;;
7199;SDS011;3641;49.082;8.200;2023-04-12T13:28:06;4.63;;;2.33;;
7199;SDS011;3641;49.082;8.200;2023-04-12T13:30:32;11.93;;;2.63;;
7199;SDS011;3641;49.082;8.200;2023-04-12T13:32:58;7.95;;;2.60;;
7199;SDS011;3641;49.082;8.200;2023-04-12T13:35:26;10.95;;;3.10;;
7199;SDS011;3641;49.082;8.200;2023-04-12T13:37:53;11.10;;;3.65;;
7199;SDS011;3641;49.082;8.200;2023-04-12T13:40:19;12.80;;;3.90;;
7199;SDS011;3641;49.082;8.200;2023-04-12T13:42:46;9.98;;;3.60;;
7199;SDS011;3641;49.082;8.200;2023-04-12T13:45:12;12.02;;;4.00;;
7199;SDS011;3641;49.082;8.200;2023-04-12T13:47:39;8.50;;;3.50;;
7199;SDS011;3641;49.082;8.200;2023-04-12T13:50:06;11.70;;;4.75;;
7199;SDS011;3641;49.082;8.200;2023-04-12T13:52:34;13.27;;;5.13;;
7199;SDS011;3641;49.082;8.200;2023-04-12T13:55:01;13.38;;;5.03;;
7199;SDS011;3641;49.082;8.200;2023-04-12T13:57:31;11.07;;;4.60;;
7199;SDS011;3641;49.082;8.200;2023-04-12T13:59:58;13.60;;;5.30;;
7199;SDS011;3641;49.082;8.200;2023-04-12T14:02:24;13.05;;;4.70;;
7199;SDS011;3641;49.082;8.200;2023-04-12T14:04:51;12.40;;;4.05;;
7199;SDS011;3641;49.082;8.200;2023-04-12T14:07:19;8.07;;;3.05;;
7199;SDS011;3641;49.082;8.200;2023-04-12T14:09:49;6.65;;;2.22;;
7199;SDS011;3641;49.082;8.200;2023-04-12T14:12:15;2.47;;;0.82;;
7199;SDS011;3641;49.082;8.200;2023-04-12T14:14:42;7.13;;;1.10;;
7199;SDS011;3641;49.082;8.200;2023-04-12T14:17:08;1.67;;;0.90;;
7199;SDS011;3641;49.082;8.200;2023-04-12T14:19:35;2.33;;;0.85;;
7199;SDS011;3641;49.082;8.200;2023-04-12T14:22:01;2.33;;;0.98;;
7199;SDS011;3641;49.082;8.200;2023-04-12T14:24:28;2.45;;;0.80;;
7199;SDS011;3641;49.082;8.200;2023-04-12T14:26:57;2.58;;;0.70;;
7199;SDS011;3641;49.082;8.200;2023-04-12T14:29:24;2.15;;;0.90;;
7199;SDS011;3641;49.082;8.200;2023-04-12T14:31:51;2.80;;;1.00;;
7199;SDS011;3641;49.082;8.200;2023-04-12T14:34:18;4.18;;;0.98;;
7199;SDS011;3641;49.082;8.200;2023-04-12T14:36:44;4.10;;;1.30;;
7199;SDS011;3641;49.082;8.200;2023-04-12T14:39:11;3.97;;;1.10;;
7199;SDS011;3641;49.082;8.200;2023-04-12T14:41:37;3.08;;;1.20;;
7199;SDS011;3641;49.082;8.200;2023-04-12T14:44:06;2.47;;;0.90;;
7199;SDS011;3641;49.082;8.200;2023-04-12T14:46:33;1.63;;;0.70;;
7199;SDS011;3641;49.082;8.200;2023-04-12T14:48:59;3.45;;;0.88;;
7199;SDS011;3641;49.082;8.200;2023-04-12T14:51:26;2.45;;;1.10;;
7199;SDS011;3641;49.082;8.200;2023-04-12T14:53:53;1.65;;;0.60;;
7199;SDS011;3641;49.082;8.200;2023-04-12T14:56:19;5.10;;;0.90;;
7199;SDS011;3641;49.082;8.200;2023-04-12T14:58:46;1.30;;;0.60;;
7199;SDS011;3641;49.082;8.200;2023-04-12T15:01:14;2.08;;;0.70;;
7199;SDS011;3641;49.082;8.200;2023-04-12T15:03:42;1.02;;;0.70;;
7199;SDS011;3641;49.082;8.200;2023-04-12T15:06:09;3.20;;;0.90;;
7199;SDS011;3641;49.082;8.200;2023-04-12T15:08:37;9.35;;;0.90;;
7199;SDS011;3641;49.082;8.200;2023-04-12T15:11:07;4.72;;;0.80;;
7199;SDS011;3641;49.082;8.200;2023-04-12T15:13:35;2.50;;;0.60;;
7199;SDS011;3641;49.082;8.200;2023-04-12T15:16:03;2.67;;;0.70;;
7199;SDS011;3641;49.082;8.200;2023-04-12T15:18:32;2.08;;;0.68;;
7199;SDS011;3641;49.082;8.200;2023-04-12T15:20:58;3.30;;;0.90;;
7199;SDS011;3641;49.082;8.200;2023-04-12T15:23:26;2.15;;;1.05;;
7199;SDS011;3641;49.082;8.200;2023-04-12T15:25:55;2.50;;;1.00;;
7199;SDS011;3641;49.082;8.200;2023-04-12T15:28:23;2.28;;;1.00;;
7199;SDS011;3641;49.082;8.200;2023-04-12T15:30:50;1.88;;;1.02;;
7199;SDS011;3641;49.082;8.200;2023-04-12T15:33:18;3.80;;;1.15;;